Shinkyo Maru No.3 — JD3397 — position and weather

sailwx.info

Track history (hours):
 
Tides and Currents Weather Stations Pressure Air Temp Water Temp Dewpoint Dewpoint Depression Visibility Wind Speed Wind Dir Waves Ship Positions

Shinkyo Maru No.3

Last reported at 2017-Dec-11 17:01 UTC. Time now 2017-Dec-12 02:43 UTC.
Position N 34°40' E 135°11'.

Length 55 m; draft 3 m.

Type: Cargo ship. MMSI: 431003752.

Date/timePositionNaut miles runAvg speedWind from/ knotsBaromVisibWave heightAir tempDewpointWater temp
2017-Dec-11 17:01N 34°40' E 135°11'0 0.0
2017-Dec-11 16:31N 34°40' E 135°11'0 0.0
2017-Dec-11 16:00N 34°40' E 135°11'0 0.0
2017-Dec-11 15:30N 34°40' E 135°11'0 0.0
2017-Dec-11 15:01N 34°40' E 135°11'0 0.0
2017-Dec-11 14:31N 34°40' E 135°11'0 0.0
2017-Dec-11 14:01N 34°40' E 135°11'0 0.0
2017-Dec-11 13:31N 34°40' E 135°11'0 0.0
2017-Dec-11 13:01N 34°40' E 135°11'0 0.0
2017-Dec-11 12:31N 34°40' E 135°11'0 0.0
2017-Dec-11 12:01N 34°40' E 135°11'0 0.0
2017-Dec-11 11:30N 34°40' E 135°11'0 0.0
2017-Dec-11 11:01N 34°40' E 135°11'0 0.0
2017-Dec-11 10:30N 34°40' E 135°11'0 0.0
2017-Dec-11 10:01N 34°40' E 135°11'0 0.0
2017-Dec-11 09:31N 34°40' E 135°11'1 1.7
2017-Dec-11 09:01N 34°39' E 135°11'1 1.7
2017-Dec-11 08:31N 34°40' E 135°11'4 8.1
2017-Dec-11 08:01N 34°39' E 135°15'5 9.1
2017-Dec-11 07:30N 34°41' E 135°20'3 6.6
2017-Dec-11 07:00N 34°42' E 135°24'0 0.3
2017-Dec-11 06:30N 34°42' E 135°24'0 0.0
2017-Dec-11 06:01N 34°42' E 135°24'0 0.0
2017-Dec-11 05:31N 34°42' E 135°24'0 0.0
2017-Dec-11 05:01N 34°42' E 135°24'0 0.0
2017-Dec-11 04:31N 34°42' E 135°24'0 0.0
2017-Dec-11 04:00N 34°42' E 135°24'0 0.0
2017-Dec-11 03:31N 34°42' E 135°24'0 0.0
2017-Dec-11 03:01N 34°42' E 135°24'0 0.0
2017-Dec-11 02:31N 34°42' E 135°24'0 0.1
2017-Dec-11 02:01N 34°42' E 135°24'0 0.0
2017-Dec-11 01:31N 34°42' E 135°24'0 0.0
2017-Dec-11 01:01N 34°42' E 135°24'0 0.0
2017-Dec-11 00:30N 34°42' E 135°24'0 0.0
2017-Dec-11 00:01N 34°42' E 135°24'0 0.0
2017-Dec-10 23:30N 34°42' E 135°24'0 0.0
2017-Dec-10 23:00N 34°42' E 135°24'0 0.0
2017-Dec-10 22:31N 34°42' E 135°24'0 0.0
2017-Dec-10 22:01N 34°42' E 135°24'0 0.0
2017-Dec-10 21:31N 34°42' E 135°24'0 0.0
2017-Dec-10 21:01N 34°42' E 135°24'0 0.0
2017-Dec-10 20:31N 34°42' E 135°24'0 0.0
2017-Dec-10 20:00N 34°42' E 135°24'0 0.0
2017-Dec-10 19:31N 34°42' E 135°24'0 0.0
2017-Dec-10 19:01N 34°42' E 135°24'0 0.0
2017-Dec-10 18:30N 34°42' E 135°24'0 0.0
2017-Dec-10 18:01N 34°42' E 135°24'0 0.0
2017-Dec-10 17:31N 34°42' E 135°24'0 0.0
2017-Dec-10 17:00N 34°42' E 135°24'0 0.0
2017-Dec-10 16:31N 34°42' E 135°24'0 0.0
2017-Dec-10 16:00N 34°42' E 135°24'0 0.0
2017-Dec-10 15:31N 34°42' E 135°24'0 0.0
2017-Dec-10 15:00N 34°42' E 135°24'0 0.0
2017-Dec-10 14:30N 34°42' E 135°24'0 0.0
2017-Dec-10 14:00N 34°42' E 135°24'0 0.0
2017-Dec-10 13:30N 34°42' E 135°24'0 0.0
2017-Dec-10 13:00N 34°42' E 135°24'0 0.0
2017-Dec-10 12:30N 34°42' E 135°24'0 0.0
2017-Dec-10 12:00N 34°42' E 135°24'0 0.0
2017-Dec-10 11:31N 34°42' E 135°24'0 0.0
2017-Dec-10 11:00N 34°42' E 135°24'0 0.0
2017-Dec-10 10:31N 34°42' E 135°24'0 0.0
2017-Dec-10 10:01N 34°42' E 135°24'0 0.0
2017-Dec-10 09:30N 34°42' E 135°24'0 0.0
2017-Dec-10 09:01N 34°42' E 135°24'0 0.0
2017-Dec-10 08:31N 34°42' E 135°24'0 0.0
2017-Dec-10 08:01N 34°42' E 135°24'0 0.0
2017-Dec-10 07:31N 34°42' E 135°24'0 0.0
2017-Dec-10 07:01N 34°42' E 135°24'0 0.0
2017-Dec-10 06:31N 34°42' E 135°24'0 0.0
2017-Dec-10 06:00N 34°42' E 135°24'0 0.0
2017-Dec-10 05:30N 34°42' E 135°24'0 0.0
2017-Dec-10 05:01N 34°42' E 135°24'0 0.0
2017-Dec-10 04:31N 34°42' E 135°24'1 1.4
2017-Dec-10 04:01N 34°42' E 135°24'5 9.6
2017-Dec-10 03:31N 34°39' E 135°18'510.3
2017-Dec-10 03:01N 34°37' E 135°13'510.2
2017-Dec-10 02:30N 34°35' E 135°07'4 8.4
2017-Dec-10 02:00N 34°36' E 135°02'4 8.6
2017-Dec-10 01:31N 34°37' E 134°57'5 9.5
2017-Dec-10 01:01N 34°39' E 134°51'5 9.4
2017-Dec-10 00:30N 34°43' E 134°48'1 1.4
2017-Dec-09 23:55N 34°44' E 134°49'0 0.0
2017-Dec-09 23:17N 34°44' E 134°49'0 0.0
2017-Dec-09 22:50N 34°44' E 134°49'0 0.0
2017-Dec-09 22:25N 34°44' E 134°49'0 0.0
2017-Dec-09 20:06N 34°44' E 134°49'0 0.0
2017-Dec-09 19:36N 34°44' E 134°49'0 0.5
2017-Dec-09 19:30N 34°44' E 134°49'0 0.1
2017-Dec-09 18:57N 34°44' E 134°49'0 0.0
2017-Dec-09 18:30N 34°44' E 134°49'0 0.0
2017-Dec-09 17:37N 34°44' E 134°49'0 0.0
2017-Dec-09 17:26N 34°44' E 134°49'0 0.0
2017-Dec-09 16:58N 34°44' E 134°49'0 0.0
2017-Dec-09 16:10N 34°44' E 134°49'0 0.0
2017-Dec-09 15:44N 34°44' E 134°49'1 5.1
2017-Dec-09 15:31N 34°42' E 134°48'2 4.9
2017-Dec-09 15:01N 34°43' E 134°51'0 0.0
2017-Dec-09 14:30N 34°43' E 134°51'0 0.0
2017-Dec-09 13:58N 34°43' E 134°51'0 0.0
2017-Dec-09 13:31N 34°43' E 134°51'0 0.0
2017-Dec-09 13:00N 34°43' E 134°51'0 0.0
2017-Dec-09 12:25N 34°43' E 134°51'0 0.0
2017-Dec-09 11:58N 34°43' E 134°51'0 0.0
2017-Dec-09 11:30N 34°43' E 134°51'0 0.0
2017-Dec-09 11:00N 34°43' E 134°51'0 0.0
2017-Dec-09 10:31N 34°43' E 134°51'0 0.0
2017-Dec-09 10:01N 34°43' E 134°51'0 0.0
2017-Dec-09 09:31N 34°43' E 134°51'0 0.0
2017-Dec-09 09:01N 34°43' E 134°51'0 0.0
2017-Dec-09 08:30N 34°43' E 134°51'0 0.0
2017-Dec-09 08:01N 34°43' E 134°51'0 0.0
2017-Dec-09 07:31N 34°43' E 134°51'0 0.0
2017-Dec-09 07:00N 34°43' E 134°51'0 0.0
2017-Dec-09 06:29N 34°43' E 134°51'0 0.0
2017-Dec-09 06:00N 34°43' E 134°51'0 0.0
2017-Dec-09 05:30N 34°43' E 134°51'0 0.0
2017-Dec-09 05:00N 34°43' E 134°51'0 0.0
2017-Dec-09 04:29N 34°43' E 134°51'0 0.0
2017-Dec-09 03:58N 34°43' E 134°51'0 0.0
2017-Dec-09 03:29N 34°43' E 134°51'0 0.0
2017-Dec-09 03:01N 34°43' E 134°51'0 0.0
2017-Dec-09 02:31N 34°43' E 134°51'0 0.0
2017-Dec-09 02:01N 34°43' E 134°51'0 0.0
2017-Dec-09 01:30N 34°43' E 134°51'0 0.0
2017-Dec-09 01:01N 34°43' E 134°51'0 0.0
2017-Dec-09 00:29N 34°43' E 134°51'0 0.0
2017-Dec-09 00:00N 34°43' E 134°51'0 0.0
2017-Dec-08 23:28N 34°43' E 134°51'0 0.0
2017-Dec-08 23:01N 34°43' E 134°51'0 0.0
2017-Dec-08 22:01N 34°43' E 134°51'0 0.0
2017-Dec-08 21:59N 34°43' E 134°51'0 0.0
2017-Dec-08 21:28N 34°43' E 134°51'0 0.0
2017-Dec-08 21:00N 34°43' E 134°51'0 0.0
2017-Dec-08 20:30N 34°43' E 134°51'0 0.0
2017-Dec-08 20:01N 34°43' E 134°51'0 0.0
2017-Dec-08 19:29N 34°43' E 134°51'0 0.0
2017-Dec-08 19:00N 34°43' E 134°51'0 0.0
2017-Dec-08 18:31N 34°43' E 134°51'0 0.0
2017-Dec-08 18:00N 34°43' E 134°51'0 0.0
2017-Dec-08 17:30N 34°43' E 134°51'0 0.0
2017-Dec-08 17:01N 34°43' E 134°51'0 0.0
2017-Dec-08 16:30N 34°43' E 134°51'0 0.0
2017-Dec-08 16:01N 34°43' E 134°51'0 0.0
2017-Dec-08 15:30N 34°43' E 134°51'0 0.0
2017-Dec-08 15:00N 34°43' E 134°51'0 0.0
2017-Dec-08 14:29N 34°43' E 134°51'0 0.0
2017-Dec-08 14:00N 34°43' E 134°51'0 0.0
2017-Dec-08 13:27N 34°43' E 134°51'0 0.0
2017-Dec-08 12:59N 34°43' E 134°51'0 0.0
2017-Dec-08 12:28N 34°43' E 134°51'0 0.0
2017-Dec-08 11:57N 34°43' E 134°51'0 0.0
2017-Dec-08 11:28N 34°43' E 134°51'0 0.0
2017-Dec-08 10:36N 34°43' E 134°51'0 0.0
2017-Dec-08 10:26N 34°43' E 134°51'0 0.0
2017-Dec-08 09:57N 34°43' E 134°51'0 0.0
2017-Dec-08 09:27N 34°43' E 134°51'0 0.0
2017-Dec-08 09:01N 34°43' E 134°51'0 0.0
2017-Dec-08 08:30N 34°43' E 134°51'3 5.8
2017-Dec-08 08:01N 34°40' E 134°50'4 8.4
2017-Dec-08 07:31N 34°38' E 134°55'5 9.4
2017-Dec-08 07:01N 34°38' E 135°01'5 9.0
2017-Dec-08 06:31N 34°36' E 135°06'510.2
2017-Dec-08 06:01N 34°35' E 135°12'510.5
2017-Dec-08 05:31N 34°34' E 135°18'510.4
2017-Dec-08 05:01N 34°32' E 135°24'1 2.0
2017-Dec-08 04:30N 34°31' E 135°25'0 0.0
2017-Dec-08 04:01N 34°31' E 135°25'0 0.0
2017-Dec-08 03:31N 34°31' E 135°25'0 0.0
2017-Dec-08 03:01N 34°31' E 135°25'0 0.0
2017-Dec-08 02:30N 34°31' E 135°25'0 0.0
2017-Dec-08 02:00N 34°31' E 135°25'0 0.0
2017-Dec-08 01:31N 34°31' E 135°25'0 0.0
2017-Dec-08 01:01N 34°31' E 135°25'0 0.0
2017-Dec-08 00:31N 34°31' E 135°25'0 0.0
2017-Dec-08 00:01N 34°31' E 135°25'0 0.0
2017-Dec-07 23:31N 34°31' E 135°25'0 0.0
2017-Dec-07 23:00N 34°31' E 135°25'0 0.0
2017-Dec-07 22:30N 34°31' E 135°25'2 3.7
2017-Dec-07 22:01N 34°32' E 135°23'510.1
2017-Dec-07 21:31N 34°33' E 135°17'510.9
2017-Dec-07 21:01N 34°34' E 135°11'612.0
2017-Dec-07 20:31N 34°36' E 135°04'713.0
2017-Dec-07 20:00N 34°37' E 134°56'612.6
2017-Dec-07 19:30N 34°40' E 134°49'3 0.3
2017-Dec-07 06:24N 34°44' E 134°49'2 5.1
2017-Dec-07 06:00N 34°42' E 134°50'2 3.0
2017-Dec-07 05:30N 34°43' E 134°51'0 0.0
2017-Dec-07 05:00N 34°43' E 134°51'0 1.0
2017-Dec-07 04:30N 34°43' E 134°51'5 9.4
2017-Dec-07 04:00N 34°38' E 134°53'713.6
2017-Dec-07 03:30N 34°37' E 135°01'612.5
2017-Dec-07 03:00N 34°35' E 135°09'612.1
2017-Dec-07 02:30N 34°34' E 135°16'611.9
2017-Dec-07 02:00N 34°32' E 135°23'1 2.0
2017-Dec-07 01:29N 34°31' E 135°24'0 0.0
2017-Dec-07 00:59N 34°31' E 135°24'0 0.0
2017-Dec-07 00:29N 34°31' E 135°24'0 0.0
2017-Dec-06 23:59N 34°31' E 135°24'0 0.0
2017-Dec-06 23:23N 34°31' E 135°24'0 0.0
2017-Dec-06 22:59N 34°31' E 135°24'0 0.0
2017-Dec-06 22:29N 34°31' E 135°24'0 0.0
2017-Dec-06 21:59N 34°31' E 135°24'0 0.7
2017-Dec-06 21:31N 34°31' E 135°23'5 9.9
2017-Dec-06 21:00N 34°33' E 135°18'  
2017-Dec-04 10:22N 34°37' E 135°26'0 0.0
2017-Dec-04 09:58N 34°37' E 135°26'0 0.0
2017-Dec-04 09:28N 34°37' E 135°26'0 0.0
2017-Dec-04 08:59N 34°37' E 135°26'0 0.0
2017-Dec-04 08:28N 34°37' E 135°26'0 0.0
2017-Dec-04 07:59N 34°37' E 135°26'0 0.0
2017-Dec-04 07:25N 34°37' E 135°26'0 0.0
2017-Dec-04 06:58N 34°37' E 135°26'0 0.0
2017-Dec-04 06:28N 34°37' E 135°26'0 0.0
2017-Dec-04 05:58N 34°37' E 135°26'0 0.0
2017-Dec-04 05:25N 34°37' E 135°26'0 0.0
2017-Dec-04 04:58N 34°37' E 135°26'0 0.0
2017-Dec-04 04:28N 34°37' E 135°26'0 0.0
2017-Dec-04 03:58N 34°37' E 135°26'0 0.0
2017-Dec-04 03:28N 34°37' E 135°26'0 0.0
2017-Dec-04 02:58N 34°37' E 135°26'0 0.0
2017-Dec-04 02:28N 34°37' E 135°26'0 0.0
2017-Dec-04 01:58N 34°37' E 135°26'0 0.0
2017-Dec-04 01:28N 34°37' E 135°26'1 2.2
2017-Dec-04 01:00N 34°37' E 135°25'4 8.3
2017-Dec-04 00:30N 34°33' E 135°23'2 3.5
2017-Dec-03 23:58N 34°31' E 135°24'0 0.0
2017-Dec-03 23:28N 34°31' E 135°24'0 0.0
2017-Dec-03 22:58N 34°31' E 135°24'0 0.0
2017-Dec-03 22:28N 34°31' E 135°24'2 5.1
2017-Dec-03 22:00N 34°33' E 135°21'510.2
2017-Dec-03 21:30N 34°37' E 135°17'510.4
2017-Dec-03 21:00N 34°42' E 135°14'1 1.2
2017-Dec-03 20:29N 34°42' E 135°14'0 0.0
2017-Dec-03 19:59N 34°42' E 135°14'0 0.0
2017-Dec-03 19:28N 34°42' E 135°14'0 0.0
2017-Dec-03 18:59N 34°42' E 135°14'0 0.0
2017-Dec-03 18:29N 34°42' E 135°14'0 0.0
2017-Dec-03 17:58N 34°42' E 135°14'0 0.0
2017-Dec-03 17:29N 34°42' E 135°14'0 0.0
2017-Dec-03 16:59N 34°42' E 135°14'0 0.0
2017-Dec-03 16:28N 34°42' E 135°14'0 0.0
2017-Dec-03 15:59N 34°42' E 135°14'0 0.0
2017-Dec-03 15:29N 34°42' E 135°14'0 0.0
2017-Dec-03 14:58N 34°42' E 135°14'0 0.0
2017-Dec-03 14:29N 34°42' E 135°14'0 0.0
2017-Dec-03 13:58N 34°42' E 135°14'0 0.0
2017-Dec-03 13:28N 34°42' E 135°14'0 0.0
2017-Dec-03 12:58N 34°42' E 135°14'0 0.0
2017-Dec-03 12:29N 34°42' E 135°14'0 0.0
2017-Dec-03 11:58N 34°42' E 135°14'0 0.0
2017-Dec-03 11:28N 34°42' E 135°14'0 0.0
2017-Dec-03 10:59N 34°42' E 135°14'0 0.0
2017-Dec-03 10:28N 34°42' E 135°14'0 0.0
2017-Dec-03 09:59N 34°42' E 135°14'0 0.0
2017-Dec-03 09:29N 34°42' E 135°14'0 0.0
2017-Dec-03 08:59N 34°42' E 135°14'0 0.0
2017-Dec-03 08:28N 34°42' E 135°14'0 0.0
2017-Dec-03 07:58N 34°42' E 135°14'0 0.0
2017-Dec-03 07:25N 34°42' E 135°14'0 0.0
2017-Dec-03 06:58N 34°42' E 135°14'0 0.0
2017-Dec-03 06:28N 34°42' E 135°14'0 0.0
2017-Dec-03 05:58N 34°42' E 135°14'0 0.0
2017-Dec-03 05:29N 34°42' E 135°14'0 0.0
2017-Dec-03 04:58N 34°42' E 135°14'0 0.0
2017-Dec-03 04:28N 34°42' E 135°14'0 0.0
2017-Dec-03 03:58N 34°42' E 135°14'0 0.0
2017-Dec-03 03:28N 34°42' E 135°14'0 0.0
2017-Dec-03 02:58N 34°42' E 135°14'0 0.0
2017-Dec-03 02:28N 34°42' E 135°14'0 0.0
2017-Dec-03 01:58N 34°42' E 135°14'0 0.0
2017-Dec-03 01:29N 34°42' E 135°14'0 0.0
2017-Dec-03 00:58N 34°42' E 135°14'0 0.0
2017-Dec-03 00:28N 34°42' E 135°14'0 0.0
2017-Dec-02 23:58N 34°42' E 135°14'0 0.0
2017-Dec-02 23:28N 34°42' E 135°14'0 0.0
2017-Dec-02 22:58N 34°42' E 135°14'0 0.0
2017-Dec-02 22:28N 34°42' E 135°14'0 0.0
2017-Dec-02 21:58N 34°42' E 135°14'0 0.0
2017-Dec-02 21:28N 34°42' E 135°14'0 0.0
2017-Dec-02 20:58N 34°42' E 135°14'0 0.0
2017-Dec-02 20:28N 34°42' E 135°14'0 0.0
2017-Dec-02 19:58N 34°42' E 135°14'0 0.0
2017-Dec-02 19:28N 34°42' E 135°14'0 0.0
2017-Dec-02 18:58N 34°42' E 135°14'0 0.0
2017-Dec-02 18:28N 34°42' E 135°14'0 0.0
2017-Dec-02 17:58N 34°42' E 135°14'0 0.0
2017-Dec-02 17:28N 34°42' E 135°14'0 0.0
2017-Dec-02 16:58N 34°42' E 135°14'0 0.0
2017-Dec-02 16:28N 34°42' E 135°14'0 0.0
2017-Dec-02 15:58N 34°42' E 135°14'0 0.0
2017-Dec-02 15:28N 34°42' E 135°14'0 0.0
2017-Dec-02 14:58N 34°42' E 135°14'0 0.0
2017-Dec-02 14:28N 34°42' E 135°14'0 0.0
2017-Dec-02 13:58N 34°42' E 135°14'0 0.0
2017-Dec-02 13:28N 34°42' E 135°14'0 0.0
2017-Dec-02 12:58N 34°42' E 135°14'1 2.1
2017-Dec-02 12:31N 34°42' E 135°15'0 0.2
2017-Dec-02 11:58N 34°42' E 135°15'0 0.0
2017-Dec-02 11:28N 34°42' E 135°15'0 0.4
2017-Dec-02 10:59N 34°42' E 135°15'0 0.0
2017-Dec-02 10:29N 34°42' E 135°15'0 0.0
2017-Dec-02 09:59N 34°42' E 135°15'0 0.0
2017-Dec-02 09:29N 34°42' E 135°15'0 0.1
2017-Dec-02 08:59N 34°42' E 135°15'0 0.1
2017-Dec-02 08:29N 34°42' E 135°15'0 0.0
2017-Dec-02 07:59N 34°42' E 135°15'0 0.0
2017-Dec-02 07:29N 34°42' E 135°15'0 0.0
2017-Dec-02 06:56N 34°42' E 135°15'0 0.0
2017-Dec-02 06:29N 34°42' E 135°15'0 0.0
2017-Dec-02 05:59N 34°42' E 135°15'0 0.0
2017-Dec-02 05:29N 34°42' E 135°15'0 0.0
2017-Dec-02 04:59N 34°42' E 135°15'0 0.0
2017-Dec-02 04:29N 34°42' E 135°15'0 0.0
2017-Dec-02 03:59N 34°42' E 135°15'0 0.0
2017-Dec-02 03:29N 34°42' E 135°15'0 0.0
2017-Dec-02 02:59N 34°42' E 135°15'0 0.0
2017-Dec-02 02:29N 34°42' E 135°15'0 0.0
2017-Dec-02 01:59N 34°42' E 135°15'0 0.0
2017-Dec-02 01:29N 34°42' E 135°15'0 0.0
2017-Dec-02 00:58N 34°42' E 135°15'0 0.0
2017-Dec-02 00:29N 34°42' E 135°15'0 0.0
2017-Dec-01 23:59N 34°42' E 135°15'0 0.0
2017-Dec-01 23:29N 34°42' E 135°15'0 0.0
2017-Dec-01 22:59N 34°42' E 135°15'0 0.7
2017-Dec-01 22:29N 34°42' E 135°15'0 0.0
2017-Dec-01 21:59N 34°42' E 135°15'0 0.0
2017-Dec-01 21:30N 34°42' E 135°15'0 0.0
2017-Dec-01 20:59N 34°42' E 135°15'0 0.0
2017-Dec-01 20:29N 34°42' E 135°15'0 0.0
2017-Dec-01 19:59N 34°42' E 135°15'0 0.0
2017-Dec-01 19:29N 34°42' E 135°15'0 0.0
2017-Dec-01 18:59N 34°42' E 135°15'0 0.0
2017-Dec-01 18:29N 34°42' E 135°15'0 0.0
2017-Dec-01 18:00N 34°42' E 135°15'0 0.0
2017-Dec-01 17:29N 34°42' E 135°15'  
Track history (hours):
 
Tides and Currents Weather Stations Pressure Air Temp Water Temp Dewpoint Dewpoint Depression Visibility Wind Speed Wind Dir Waves Ship Positions

Shinkyo Maru No.3

Last reported at 2017-Dec-11 17:01 UTC. Time now 2017-Dec-12 02:43 UTC.
Position N 34°40' E 135°11'.

Length 55 m; draft 3 m.

Type: Cargo ship. MMSI: 431003752.

Date/timePositionNaut miles runAvg speedWind from/ knotsBaromVisibWave heightAir tempDewpointWater temp
2017-Dec-11 17:01N 34°40' E 135°11'0 0.0
2017-Dec-11 16:31N 34°40' E 135°11'0 0.0
2017-Dec-11 16:00N 34°40' E 135°11'0 0.0
2017-Dec-11 15:30N 34°40' E 135°11'0 0.0
2017-Dec-11 15:01N 34°40' E 135°11'0 0.0
2017-Dec-11 14:31N 34°40' E 135°11'0 0.0
2017-Dec-11 14:01N 34°40' E 135°11'0 0.0
2017-Dec-11 13:31N 34°40' E 135°11'0 0.0
2017-Dec-11 13:01N 34°40' E 135°11'0 0.0
2017-Dec-11 12:31N 34°40' E 135°11'0 0.0
2017-Dec-11 12:01N 34°40' E 135°11'0 0.0
2017-Dec-11 11:30N 34°40' E 135°11'0 0.0
2017-Dec-11 11:01N 34°40' E 135°11'0 0.0
2017-Dec-11 10:30N 34°40' E 135°11'0 0.0
2017-Dec-11 10:01N 34°40' E 135°11'0 0.0
2017-Dec-11 09:31N 34°40' E 135°11'1 1.7
2017-Dec-11 09:01N 34°39' E 135°11'1 1.7
2017-Dec-11 08:31N 34°40' E 135°11'4 8.1
2017-Dec-11 08:01N 34°39' E 135°15'5 9.1
2017-Dec-11 07:30N 34°41' E 135°20'3 6.6
2017-Dec-11 07:00N 34°42' E 135°24'0 0.3
2017-Dec-11 06:30N 34°42' E 135°24'0 0.0
2017-Dec-11 06:01N 34°42' E 135°24'0 0.0
2017-Dec-11 05:31N 34°42' E 135°24'0 0.0
2017-Dec-11 05:01N 34°42' E 135°24'0 0.0
2017-Dec-11 04:31N 34°42' E 135°24'0 0.0
2017-Dec-11 04:00N 34°42' E 135°24'0 0.0
2017-Dec-11 03:31N 34°42' E 135°24'0 0.0
2017-Dec-11 03:01N 34°42' E 135°24'0 0.0
2017-Dec-11 02:31N 34°42' E 135°24'0 0.1
2017-Dec-11 02:01N 34°42' E 135°24'0 0.0
2017-Dec-11 01:31N 34°42' E 135°24'0 0.0
2017-Dec-11 01:01N 34°42' E 135°24'0 0.0
2017-Dec-11 00:30N 34°42' E 135°24'0 0.0
2017-Dec-11 00:01N 34°42' E 135°24'0 0.0
2017-Dec-10 23:30N 34°42' E 135°24'0 0.0
2017-Dec-10 23:00N 34°42' E 135°24'0 0.0
2017-Dec-10 22:31N 34°42' E 135°24'0 0.0
2017-Dec-10 22:01N 34°42' E 135°24'0 0.0
2017-Dec-10 21:31N 34°42' E 135°24'0 0.0
2017-Dec-10 21:01N 34°42' E 135°24'0 0.0
2017-Dec-10 20:31N 34°42' E 135°24'0 0.0
2017-Dec-10 20:00N 34°42' E 135°24'0 0.0
2017-Dec-10 19:31N 34°42' E 135°24'0 0.0
2017-Dec-10 19:01N 34°42' E 135°24'0 0.0
2017-Dec-10 18:30N 34°42' E 135°24'0 0.0
2017-Dec-10 18:01N 34°42' E 135°24'0 0.0
2017-Dec-10 17:31N 34°42' E 135°24'0 0.0
2017-Dec-10 17:00N 34°42' E 135°24'0 0.0
2017-Dec-10 16:31N 34°42' E 135°24'0 0.0
2017-Dec-10 16:00N 34°42' E 135°24'0 0.0
2017-Dec-10 15:31N 34°42' E 135°24'0 0.0
2017-Dec-10 15:00N 34°42' E 135°24'0 0.0
2017-Dec-10 14:30N 34°42' E 135°24'0 0.0
2017-Dec-10 14:00N 34°42' E 135°24'0 0.0
2017-Dec-10 13:30N 34°42' E 135°24'0 0.0
2017-Dec-10 13:00N 34°42' E 135°24'0 0.0
2017-Dec-10 12:30N 34°42' E 135°24'0 0.0
2017-Dec-10 12:00N 34°42' E 135°24'0 0.0
2017-Dec-10 11:31N 34°42' E 135°24'0 0.0
2017-Dec-10 11:00N 34°42' E 135°24'0 0.0
2017-Dec-10 10:31N 34°42' E 135°24'0 0.0
2017-Dec-10 10:01N 34°42' E 135°24'0 0.0
2017-Dec-10 09:30N 34°42' E 135°24'0 0.0
2017-Dec-10 09:01N 34°42' E 135°24'0 0.0
2017-Dec-10 08:31N 34°42' E 135°24'0 0.0
2017-Dec-10 08:01N 34°42' E 135°24'0 0.0
2017-Dec-10 07:31N 34°42' E 135°24'0 0.0
2017-Dec-10 07:01N 34°42' E 135°24'0 0.0
2017-Dec-10 06:31N 34°42' E 135°24'0 0.0
2017-Dec-10 06:00N 34°42' E 135°24'0 0.0
2017-Dec-10 05:30N 34°42' E 135°24'0 0.0
2017-Dec-10 05:01N 34°42' E 135°24'0 0.0
2017-Dec-10 04:31N 34°42' E 135°24'1 1.4
2017-Dec-10 04:01N 34°42' E 135°24'5 9.6
2017-Dec-10 03:31N 34°39' E 135°18'510.3
2017-Dec-10 03:01N 34°37' E 135°13'510.2
2017-Dec-10 02:30N 34°35' E 135°07'4 8.4
2017-Dec-10 02:00N 34°36' E 135°02'4 8.6
2017-Dec-10 01:31N 34°37' E 134°57'5 9.5
2017-Dec-10 01:01N 34°39' E 134°51'5 9.4
2017-Dec-10 00:30N 34°43' E 134°48'1 1.4
2017-Dec-09 23:55N 34°44' E 134°49'0 0.0
2017-Dec-09 23:17N 34°44' E 134°49'0 0.0
2017-Dec-09 22:50N 34°44' E 134°49'0 0.0
2017-Dec-09 22:25N 34°44' E 134°49'0 0.0
2017-Dec-09 20:06N 34°44' E 134°49'0 0.0
2017-Dec-09 19:36N 34°44' E 134°49'0 0.5
2017-Dec-09 19:30N 34°44' E 134°49'0 0.1
2017-Dec-09 18:57N 34°44' E 134°49'0 0.0
2017-Dec-09 18:30N 34°44' E 134°49'0 0.0
2017-Dec-09 17:37N 34°44' E 134°49'0 0.0
2017-Dec-09 17:26N 34°44' E 134°49'0 0.0
2017-Dec-09 16:58N 34°44' E 134°49'0 0.0
2017-Dec-09 16:10N 34°44' E 134°49'0 0.0
2017-Dec-09 15:44N 34°44' E 134°49'1 5.1
2017-Dec-09 15:31N 34°42' E 134°48'2 4.9
2017-Dec-09 15:01N 34°43' E 134°51'0 0.0
2017-Dec-09 14:30N 34°43' E 134°51'0 0.0
2017-Dec-09 13:58N 34°43' E 134°51'0 0.0
2017-Dec-09 13:31N 34°43' E 134°51'0 0.0
2017-Dec-09 13:00N 34°43' E 134°51'0 0.0
2017-Dec-09 12:25N 34°43' E 134°51'0 0.0
2017-Dec-09 11:58N 34°43' E 134°51'0 0.0
2017-Dec-09 11:30N 34°43' E 134°51'0 0.0
2017-Dec-09 11:00N 34°43' E 134°51'0 0.0
2017-Dec-09 10:31N 34°43' E 134°51'0 0.0
2017-Dec-09 10:01N 34°43' E 134°51'0 0.0
2017-Dec-09 09:31N 34°43' E 134°51'0 0.0
2017-Dec-09 09:01N 34°43' E 134°51'0 0.0
2017-Dec-09 08:30N 34°43' E 134°51'0 0.0
2017-Dec-09 08:01N 34°43' E 134°51'0 0.0
2017-Dec-09 07:31N 34°43' E 134°51'0 0.0
2017-Dec-09 07:00N 34°43' E 134°51'0 0.0
2017-Dec-09 06:29N 34°43' E 134°51'0 0.0
2017-Dec-09 06:00N 34°43' E 134°51'0 0.0
2017-Dec-09 05:30N 34°43' E 134°51'0 0.0
2017-Dec-09 05:00N 34°43' E 134°51'0 0.0
2017-Dec-09 04:29N 34°43' E 134°51'0 0.0
2017-Dec-09 03:58N 34°43' E 134°51'0 0.0
2017-Dec-09 03:29N 34°43' E 134°51'0 0.0
2017-Dec-09 03:01N 34°43' E 134°51'0 0.0
2017-Dec-09 02:31N 34°43' E 134°51'0 0.0
2017-Dec-09 02:01N 34°43' E 134°51'0 0.0
2017-Dec-09 01:30N 34°43' E 134°51'0 0.0
2017-Dec-09 01:01N 34°43' E 134°51'0 0.0
2017-Dec-09 00:29N 34°43' E 134°51'0 0.0
2017-Dec-09 00:00N 34°43' E 134°51'0 0.0
2017-Dec-08 23:28N 34°43' E 134°51'0 0.0
2017-Dec-08 23:01N 34°43' E 134°51'0 0.0
2017-Dec-08 22:01N 34°43' E 134°51'0 0.0
2017-Dec-08 21:59N 34°43' E 134°51'0 0.0
2017-Dec-08 21:28N 34°43' E 134°51'0 0.0
2017-Dec-08 21:00N 34°43' E 134°51'0 0.0
2017-Dec-08 20:30N 34°43' E 134°51'0 0.0
2017-Dec-08 20:01N 34°43' E 134°51'0 0.0
2017-Dec-08 19:29N 34°43' E 134°51'0 0.0
2017-Dec-08 19:00N 34°43' E 134°51'0 0.0
2017-Dec-08 18:31N 34°43' E 134°51'0 0.0
2017-Dec-08 18:00N 34°43' E 134°51'0 0.0
2017-Dec-08 17:30N 34°43' E 134°51'0 0.0
2017-Dec-08 17:01N 34°43' E 134°51'0 0.0
2017-Dec-08 16:30N 34°43' E 134°51'0 0.0
2017-Dec-08 16:01N 34°43' E 134°51'0 0.0
2017-Dec-08 15:30N 34°43' E 134°51'0 0.0
2017-Dec-08 15:00N 34°43' E 134°51'0 0.0
2017-Dec-08 14:29N 34°43' E 134°51'0 0.0
2017-Dec-08 14:00N 34°43' E 134°51'0 0.0
2017-Dec-08 13:27N 34°43' E 134°51'0 0.0
2017-Dec-08 12:59N 34°43' E 134°51'0 0.0
2017-Dec-08 12:28N 34°43' E 134°51'0 0.0
2017-Dec-08 11:57N 34°43' E 134°51'0 0.0
2017-Dec-08 11:28N 34°43' E 134°51'0 0.0
2017-Dec-08 10:36N 34°43' E 134°51'0 0.0
2017-Dec-08 10:26N 34°43' E 134°51'0 0.0
2017-Dec-08 09:57N 34°43' E 134°51'0 0.0
2017-Dec-08 09:27N 34°43' E 134°51'0 0.0
2017-Dec-08 09:01N 34°43' E 134°51'0 0.0
2017-Dec-08 08:30N 34°43' E 134°51'3 5.8
2017-Dec-08 08:01N 34°40' E 134°50'4 8.4
2017-Dec-08 07:31N 34°38' E 134°55'5 9.4
2017-Dec-08 07:01N 34°38' E 135°01'5 9.0
2017-Dec-08 06:31N 34°36' E 135°06'510.2
2017-Dec-08 06:01N 34°35' E 135°12'510.5
2017-Dec-08 05:31N 34°34' E 135°18'510.4
2017-Dec-08 05:01N 34°32' E 135°24'1 2.0
2017-Dec-08 04:30N 34°31' E 135°25'0 0.0
2017-Dec-08 04:01N 34°31' E 135°25'0 0.0
2017-Dec-08 03:31N 34°31' E 135°25'0 0.0
2017-Dec-08 03:01N 34°31' E 135°25'0 0.0
2017-Dec-08 02:30N 34°31' E 135°25'0 0.0
2017-Dec-08 02:00N 34°31' E 135°25'0 0.0
2017-Dec-08 01:31N 34°31' E 135°25'0 0.0
2017-Dec-08 01:01N 34°31' E 135°25'0 0.0
2017-Dec-08 00:31N 34°31' E 135°25'0 0.0
2017-Dec-08 00:01N 34°31' E 135°25'0 0.0
2017-Dec-07 23:31N 34°31' E 135°25'0 0.0
2017-Dec-07 23:00N 34°31' E 135°25'0 0.0
2017-Dec-07 22:30N 34°31' E 135°25'2 3.7
2017-Dec-07 22:01N 34°32' E 135°23'510.1
2017-Dec-07 21:31N 34°33' E 135°17'510.9
2017-Dec-07 21:01N 34°34' E 135°11'612.0
2017-Dec-07 20:31N 34°36' E 135°04'713.0
2017-Dec-07 20:00N 34°37' E 134°56'612.6
2017-Dec-07 19:30N 34°40' E 134°49'3 0.3
2017-Dec-07 06:24N 34°44' E 134°49'2 5.1
2017-Dec-07 06:00N 34°42' E 134°50'2 3.0
2017-Dec-07 05:30N 34°43' E 134°51'0 0.0
2017-Dec-07 05:00N 34°43' E 134°51'0 1.0
2017-Dec-07 04:30N 34°43' E 134°51'5 9.4
2017-Dec-07 04:00N 34°38' E 134°53'713.6
2017-Dec-07 03:30N 34°37' E 135°01'612.5
2017-Dec-07 03:00N 34°35' E 135°09'612.1
2017-Dec-07 02:30N 34°34' E 135°16'611.9
2017-Dec-07 02:00N 34°32' E 135°23'1 2.0
2017-Dec-07 01:29N 34°31' E 135°24'0 0.0
2017-Dec-07 00:59N 34°31' E 135°24'0 0.0
2017-Dec-07 00:29N 34°31' E 135°24'0 0.0
2017-Dec-06 23:59N 34°31' E 135°24'0 0.0
2017-Dec-06 23:23N 34°31' E 135°24'0 0.0
2017-Dec-06 22:59N 34°31' E 135°24'0 0.0
2017-Dec-06 22:29N 34°31' E 135°24'0 0.0
2017-Dec-06 21:59N 34°31' E 135°24'0 0.7
2017-Dec-06 21:31N 34°31' E 135°23'5 9.9
2017-Dec-06 21:00N 34°33' E 135°18'  
2017-Dec-04 10:22N 34°37' E 135°26'0 0.0
2017-Dec-04 09:58N 34°37' E 135°26'0 0.0
2017-Dec-04 09:28N 34°37' E 135°26'0 0.0
2017-Dec-04 08:59N 34°37' E 135°26'0 0.0
2017-Dec-04 08:28N 34°37' E 135°26'0 0.0
2017-Dec-04 07:59N 34°37' E 135°26'0 0.0
2017-Dec-04 07:25N 34°37' E 135°26'0 0.0
2017-Dec-04 06:58N 34°37' E 135°26'0 0.0
2017-Dec-04 06:28N 34°37' E 135°26'0 0.0
2017-Dec-04 05:58N 34°37' E 135°26'0 0.0
2017-Dec-04 05:25N 34°37' E 135°26'0 0.0
2017-Dec-04 04:58N 34°37' E 135°26'0 0.0
2017-Dec-04 04:28N 34°37' E 135°26'0 0.0
2017-Dec-04 03:58N 34°37' E 135°26'0 0.0
2017-Dec-04 03:28N 34°37' E 135°26'0 0.0
2017-Dec-04 02:58N 34°37' E 135°26'0 0.0
2017-Dec-04 02:28N 34°37' E 135°26'0 0.0
2017-Dec-04 01:58N 34°37' E 135°26'0 0.0
2017-Dec-04 01:28N 34°37' E 135°26'1 2.2
2017-Dec-04 01:00N 34°37' E 135°25'4 8.3
2017-Dec-04 00:30N 34°33' E 135°23'2 3.5
2017-Dec-03 23:58N 34°31' E 135°24'0 0.0
2017-Dec-03 23:28N 34°31' E 135°24'0 0.0
2017-Dec-03 22:58N 34°31' E 135°24'0 0.0
2017-Dec-03 22:28N 34°31' E 135°24'2 5.1
2017-Dec-03 22:00N 34°33' E 135°21'510.2
2017-Dec-03 21:30N 34°37' E 135°17'510.4
2017-Dec-03 21:00N 34°42' E 135°14'1 1.2
2017-Dec-03 20:29N 34°42' E 135°14'0 0.0
2017-Dec-03 19:59N 34°42' E 135°14'0 0.0
2017-Dec-03 19:28N 34°42' E 135°14'0 0.0
2017-Dec-03 18:59N 34°42' E 135°14'0 0.0
2017-Dec-03 18:29N 34°42' E 135°14'0 0.0
2017-Dec-03 17:58N 34°42' E 135°14'0 0.0
2017-Dec-03 17:29N 34°42' E 135°14'0 0.0
2017-Dec-03 16:59N 34°42' E 135°14'0 0.0
2017-Dec-03 16:28N 34°42' E 135°14'0 0.0
2017-Dec-03 15:59N 34°42' E 135°14'0 0.0
2017-Dec-03 15:29N 34°42' E 135°14'0 0.0
2017-Dec-03 14:58N 34°42' E 135°14'0 0.0
2017-Dec-03 14:29N 34°42' E 135°14'0 0.0
2017-Dec-03 13:58N 34°42' E 135°14'0 0.0
2017-Dec-03 13:28N 34°42' E 135°14'0 0.0
2017-Dec-03 12:58N 34°42' E 135°14'0 0.0
2017-Dec-03 12:29N 34°42' E 135°14'0 0.0
2017-Dec-03 11:58N 34°42' E 135°14'0 0.0
2017-Dec-03 11:28N 34°42' E 135°14'0 0.0
2017-Dec-03 10:59N 34°42' E 135°14'0 0.0
2017-Dec-03 10:28N 34°42' E 135°14'0 0.0
2017-Dec-03 09:59N 34°42' E 135°14'0 0.0
2017-Dec-03 09:29N 34°42' E 135°14'0 0.0
2017-Dec-03 08:59N 34°42' E 135°14'0 0.0
2017-Dec-03 08:28N 34°42' E 135°14'0 0.0
2017-Dec-03 07:58N 34°42' E 135°14'0 0.0
2017-Dec-03 07:25N 34°42' E 135°14'0 0.0
2017-Dec-03 06:58N 34°42' E 135°14'0 0.0
2017-Dec-03 06:28N 34°42' E 135°14'0 0.0
2017-Dec-03 05:58N 34°42' E 135°14'0 0.0
2017-Dec-03 05:29N 34°42' E 135°14'0 0.0
2017-Dec-03 04:58N 34°42' E 135°14'0 0.0
2017-Dec-03 04:28N 34°42' E 135°14'0 0.0
2017-Dec-03 03:58N 34°42' E 135°14'0 0.0
2017-Dec-03 03:28N 34°42' E 135°14'0 0.0
2017-Dec-03 02:58N 34°42' E 135°14'0 0.0
2017-Dec-03 02:28N 34°42' E 135°14'0 0.0
2017-Dec-03 01:58N 34°42' E 135°14'0 0.0
2017-Dec-03 01:29N 34°42' E 135°14'0 0.0
2017-Dec-03 00:58N 34°42' E 135°14'0 0.0
2017-Dec-03 00:28N 34°42' E 135°14'0 0.0
2017-Dec-02 23:58N 34°42' E 135°14'0 0.0
2017-Dec-02 23:28N 34°42' E 135°14'0 0.0
2017-Dec-02 22:58N 34°42' E 135°14'0 0.0
2017-Dec-02 22:28N 34°42' E 135°14'0 0.0
2017-Dec-02 21:58N 34°42' E 135°14'0 0.0
2017-Dec-02 21:28N 34°42' E 135°14'0 0.0
2017-Dec-02 20:58N 34°42' E 135°14'0 0.0
2017-Dec-02 20:28N 34°42' E 135°14'0 0.0
2017-Dec-02 19:58N 34°42' E 135°14'0 0.0
2017-Dec-02 19:28N 34°42' E 135°14'0 0.0
2017-Dec-02 18:58N 34°42' E 135°14'0 0.0
2017-Dec-02 18:28N 34°42' E 135°14'0 0.0
2017-Dec-02 17:58N 34°42' E 135°14'0 0.0
2017-Dec-02 17:28N 34°42' E 135°14'0 0.0
2017-Dec-02 16:58N 34°42' E 135°14'0 0.0
2017-Dec-02 16:28N 34°42' E 135°14'0 0.0
2017-Dec-02 15:58N 34°42' E 135°14'0 0.0
2017-Dec-02 15:28N 34°42' E 135°14'0 0.0
2017-Dec-02 14:58N 34°42' E 135°14'0 0.0
2017-Dec-02 14:28N 34°42' E 135°14'0 0.0
2017-Dec-02 13:58N 34°42' E 135°14'0 0.0
2017-Dec-02 13:28N 34°42' E 135°14'0 0.0
2017-Dec-02 12:58N 34°42' E 135°14'1 2.1
2017-Dec-02 12:31N 34°42' E 135°15'0 0.2
2017-Dec-02 11:58N 34°42' E 135°15'0 0.0
2017-Dec-02 11:28N 34°42' E 135°15'0 0.4
2017-Dec-02 10:59N 34°42' E 135°15'0 0.0
2017-Dec-02 10:29N 34°42' E 135°15'0 0.0
2017-Dec-02 09:59N 34°42' E 135°15'0 0.0
2017-Dec-02 09:29N 34°42' E 135°15'0 0.1
2017-Dec-02 08:59N 34°42' E 135°15'0 0.1
2017-Dec-02 08:29N 34°42' E 135°15'0 0.0
2017-Dec-02 07:59N 34°42' E 135°15'0 0.0
2017-Dec-02 07:29N 34°42' E 135°15'0 0.0
2017-Dec-02 06:56N 34°42' E 135°15'0 0.0
2017-Dec-02 06:29N 34°42' E 135°15'0 0.0
2017-Dec-02 05:59N 34°42' E 135°15'0 0.0
2017-Dec-02 05:29N 34°42' E 135°15'0 0.0
2017-Dec-02 04:59N 34°42' E 135°15'0 0.0
2017-Dec-02 04:29N 34°42' E 135°15'0 0.0
2017-Dec-02 03:59N 34°42' E 135°15'0 0.0
2017-Dec-02 03:29N 34°42' E 135°15'0 0.0
2017-Dec-02 02:59N 34°42' E 135°15'0 0.0
2017-Dec-02 02:29N 34°42' E 135°15'0 0.0
2017-Dec-02 01:59N 34°42' E 135°15'0 0.0
2017-Dec-02 01:29N 34°42' E 135°15'0 0.0
2017-Dec-02 00:58N 34°42' E 135°15'0 0.0
2017-Dec-02 00:29N 34°42' E 135°15'0 0.0
2017-Dec-01 23:59N 34°42' E 135°15'0 0.0
2017-Dec-01 23:29N 34°42' E 135°15'0 0.0
2017-Dec-01 22:59N 34°42' E 135°15'0 0.7
2017-Dec-01 22:29N 34°42' E 135°15'0 0.0
2017-Dec-01 21:59N 34°42' E 135°15'0 0.0
2017-Dec-01 21:30N 34°42' E 135°15'0 0.0
2017-Dec-01 20:59N 34°42' E 135°15'0 0.0
2017-Dec-01 20:29N 34°42' E 135°15'0 0.0
2017-Dec-01 19:59N 34°42' E 135°15'0 0.0
2017-Dec-01 19:29N 34°42' E 135°15'0 0.0
2017-Dec-01 18:59N 34°42' E 135°15'0 0.0
2017-Dec-01 18:29N 34°42' E 135°15'0 0.0
2017-Dec-01 18:00N 34°42' E 135°15'0 0.0
2017-Dec-01 17:29N 34°42' E 135°15'  

Dump ship's entire track history